Time;durP1;ratioP1;P1;durP2;ratioP2;P2;SDS_P1;SDS_P2;PMS_P1;PMS_P2;Temp;Humidity;BMP_temperature;BMP_pressure;BME280_temperature;BME280_humidity;BME280_pressure;Samples;Min_cycle;Max_cycle;Signal;HPM_P1;HPM_P2
2020/12/21 00:02:05;;;;;;;2.05;1.20;;;21.40;45.50;;;;;;1481363;92;21708;-34
2020/12/21 00:04:33;;;;;;;3.47;1.50;;;21.40;45.40;;;;;;1512671;92;21178;-36
2020/12/21 00:07:00;;;;;;;2.50;1.20;;;21.40;45.50;;;;;;1510573;92;21269;-36
2020/12/21 00:09:28;;;;;;;3.85;1.20;;;21.40;45.50;;;;;;1517178;92;21250;-35
2020/12/21 00:11:56;;;;;;;3.72;1.40;;;21.40;45.50;;;;;;1522578;92;21300;-35
2020/12/21 00:14:23;;;;;;;2.87;1.27;;;21.40;45.50;;;;;;1513757;92;21174;-36
2020/12/21 00:16:53;;;;;;;2.62;1.60;;;21.30;45.30;;;;;;1498147;93;21324;-35
2020/12/21 00:19:22;;;;;;;4.85;1.60;;;21.30;45.40;;;;;;1511335;92;21357;-36
2020/12/21 00:21:53;;;;;;;2.10;1.30;;;21.30;45.40;;;;;;1477386;93;21226;-35
2020/12/21 00:24:21;;;;;;;2.80;1.22;;;21.30;45.40;;;;;;1513882;92;21210;-35
2020/12/21 00:26:51;;;;;;;1.80;1.12;;;21.30;45.50;;;;;;1511056;92;21176;-36
2020/12/21 00:29:19;;;;;;;4.12;1.55;;;21.30;45.50;;;;;;1514845;92;21731;-35
2020/12/21 00:31:49;;;;;;;2.98;1.07;;;21.30;45.40;;;;;;1515330;93;21176;-35
2020/12/21 00:34:17;;;;;;;4.50;1.70;;;21.30;45.50;;;;;;1513306;92;21315;-36
2020/12/21 00:36:49;;;;;;;2.72;1.30;;;21.30;45.50;;;;;;1515647;92;21762;-36
2020/12/21 00:39:18;;;;;;;1.77;1.30;;;21.30;45.50;;;;;;1512273;92;21356;-35
2020/12/21 00:41:46;;;;;;;2.90;1.17;;;21.30;45.40;;;;;;1497719;93;21338;-34
2020/12/21 00:44:15;;;;;;;2.85;1.37;;;21.30;45.50;;;;;;1513129;92;21151;-34
2020/12/21 00:46:43;;;;;;;3.75;1.40;;;21.30;45.50;;;;;;1512952;92;21268;-36
2020/12/21 00:49:11;;;;;;;2.08;1.30;;;21.30;45.40;;;;;;1502627;92;21238;-36
2020/12/21 00:51:38;;;;;;;2.50;1.07;;;21.30;45.40;;;;;;1514256;92;21831;-36
2020/12/21 00:54:06;;;;;;;2.00;1.42;;;21.30;45.50;;;;;;1511632;92;21175;-37
2020/12/21 00:56:34;;;;;;;3.40;1.45;;;21.20;45.50;;;;;;1513803;92;21194;-36
2020/12/21 00:59:02;;;;;;;2.40;1.50;;;21.20;45.40;;;;;;1512528;92;21588;-36
2020/12/21 01:01:30;;;;;;;2.17;1.20;;;21.20;45.50;;;;;;1490974;93;21290;-36
2020/12/21 01:04:02;;;;;;;2.30;1.30;;;21.20;45.50;;;;;;1514332;92;21202;-37
2020/12/21 01:06:31;;;;;;;1.72;1.10;;;21.20;45.40;;;;;;1494309;93;21214;-34
2020/12/21 01:09:09;;;;;;;1.80;1.20;;;21.20;45.50;;;;;;1498674;93;21203;-35
2020/12/21 01:11:32;;;;;;;1.67;1.20;;;21.20;45.40;;;;;;1513909;92;21253;-36
2020/12/21 01:14:00;;;;;;;1.87;1.17;;;21.20;45.40;;;;;;1497311;93;21313;-36
2020/12/21 01:16:27;;;;;;;1.95;1.27;;;21.20;45.50;;;;;;1511983;92;21282;-38
2020/12/21 01:18:55;;;;;;;3.98;1.65;;;21.20;45.50;;;;;;1511901;93;21222;-36
2020/12/21 01:21:24;;;;;;;3.05;1.22;;;21.20;45.50;;;;;;1507866;92;21661;-36
2020/12/21 01:23:52;;;;;;;2.42;1.40;;;21.20;45.50;;;;;;1516370;92;21530;-36
2020/12/21 01:26:20;;;;;;;3.72;1.62;;;21.20;45.50;;;;;;1515026;92;21414;-37
2020/12/21 01:28:48;;;;;;;1.70;1.00;;;21.20;45.50;;;;;;1518297;92;21724;-37
2020/12/21 01:31:17;;;;;;;2.25;1.40;;;21.20;45.50;;;;;;1519525;92;21206;-35
2020/12/21 01:33:45;;;;;;;2.67;1.40;;;21.20;45.50;;;;;;1518174;92;21210;-35
2020/12/21 01:36:13;;;;;;;2.50;1.27;;;21.20;45.50;;;;;;1517476;92;21194;-37
2020/12/21 01:38:41;;;;;;;2.45;1.20;;;21.20;45.50;;;;;;1515868;92;21617;-36
2020/12/21 01:41:09;;;;;;;4.12;1.47;;;21.20;45.50;;;;;;1482980;92;21177;-39
2020/12/21 01:43:37;;;;;;;1.60;1.17;;;21.20;45.40;;;;;;1517267;92;21187;-37
2020/12/21 01:46:10;;;;;;;3.42;1.07;;;21.20;45.40;;;;;;1532534;92;21386;-36
2020/12/21 01:48:38;;;;;;;1.60;1.02;;;21.20;45.50;;;;;;1520472;92;21193;-35
2020/12/21 01:51:07;;;;;;;3.40;1.47;;;21.10;45.50;;;;;;1523434;92;21242;-36
2020/12/21 01:53:37;;;;;;;4.87;1.30;;;21.10;45.50;;;;;;1504933;92;21218;-37
2020/12/21 01:56:05;;;;;;;2.40;1.47;;;21.10;45.40;;;;;;1525711;92;22523;-36
2020/12/21 01:58:34;;;;;;;2.52;1.10;;;21.10;45.40;;;;;;1520852;92;21370;-36
2020/12/21 02:01:03;;;;;;;2.45;1.30;;;21.10;45.40;;;;;;1481091;93;21167;-36
2020/12/21 02:03:31;;;;;;;2.60;1.15;;;21.10;45.40;;;;;;1526601;92;21203;-34
2020/12/21 02:05:59;;;;;;;2.35;1.20;;;21.10;45.40;;;;;;1517794;92;22747;-34
2020/12/21 02:08:27;;;;;;;1.90;1.20;;;21.10;45.40;;;;;;1488146;94;21368;-36
2020/12/21 02:10:55;;;;;;;1.77;1.27;;;21.10;45.50;;;;;;1518984;92;21198;-35
2020/12/21 02:13:22;;;;;;;2.92;1.35;;;21.10;45.50;;;;;;1501778;92;21865;-34
2020/12/21 02:15:50;;;;;;;1.82;1.10;;;21.10;45.40;;;;;;1517068;92;21296;-39
2020/12/21 02:18:18;;;;;;;3.25;1.22;;;21.10;45.40;;;;;;1521667;92;21380;-35
2020/12/21 02:20:45;;;;;;;2.72;1.20;;;21.10;45.50;;;;;;1510331;92;21241;-35
2020/12/21 02:23:13;;;;;;;3.35;1.30;;;21.10;45.40;;;;;;1529760;92;21653;-36
2020/12/21 02:25:41;;;;;;;2.58;1.50;;;21.10;45.40;;;;;;1532617;92;21281;-38
2020/12/21 02:28:08;;;;;;;3.10;1.40;;;21.10;45.40;;;;;;1531543;92;22021;-36
2020/12/21 02:30:37;;;;;;;1.45;1.22;;;21.10;45.40;;;;;;1529774;91;21277;-36
2020/12/21 02:33:07;;;;;;;4.45;1.55;;;21.00;45.40;;;;;;1515376;92;21267;-35
2020/12/21 02:35:35;;;;;;;2.90;1.40;;;21.10;45.40;;;;;;1536842;91;21389;-35
2020/12/21 02:38:08;;;;;;;3.02;1.15;;;21.00;45.40;;;;;;1533368;91;21206;-36
2020/12/21 02:40:40;;;;;;;2.00;1.17;;;21.00;45.40;;;;;;1516458;92;21223;-35
2020/12/21 02:43:08;;;;;;;2.87;1.02;;;21.10;45.50;;;;;;1537241;91;21705;-37
2020/12/21 02:45:35;;;;;;;1.92;1.30;;;21.00;45.40;;;;;;1529090;92;21228;-36
2020/12/21 02:48:03;;;;;;;1.82;1.00;;;21.00;45.50;;;;;;1510409;92;21681;-36
2020/12/21 02:50:31;;;;;;;2.27;1.10;;;21.00;45.60;;;;;;1528943;92;21278;-36
2020/12/21 02:52:58;;;;;;;3.80;1.20;;;21.10;45.70;;;;;;1511127;92;21269;-36
2020/12/21 02:55:26;;;;;;;1.75;1.00;;;21.10;45.60;;;;;;1512864;92;21210;-36
2020/12/21 02:57:54;;;;;;;2.25;1.42;;;21.10;45.50;;;;;;1527398;91;21368;-35
2020/12/21 03:00:21;;;;;;;1.65;1.27;;;21.10;45.50;;;;;;1511912;92;21452;-36
2020/12/21 03:02:49;;;;;;;3.05;1.30;;;21.20;45.50;;;;;;1528336;92;21237;-34
2020/12/21 03:05:17;;;;;;;2.62;1.17;;;21.20;45.40;;;;;;1528887;92;21724;-36
2020/12/21 03:07:44;;;;;;;1.27;0.82;;;21.20;45.40;;;;;;1507894;92;21452;-36
2020/12/21 03:10:12;;;;;;;2.22;1.00;;;21.20;45.40;;;;;;1526455;92;21703;-37
2020/12/21 03:12:39;;;;;;;2.17;1.27;;;21.20;45.30;;;;;;1506232;92;21287;-35
2020/12/21 03:15:07;;;;;;;1.55;1.20;;;21.20;45.30;;;;;;1511189;92;21158;-35
2020/12/21 03:17:35;;;;;;;2.25;1.30;;;21.20;45.30;;;;;;1524528;91;21333;-37
2020/12/21 03:20:03;;;;;;;2.77;1.27;;;21.20;45.30;;;;;;1511490;92;21744;-37
2020/12/21 03:22:30;;;;;;;2.08;1.35;;;21.20;45.30;;;;;;1513592;92;21222;-37
2020/12/21 03:24:58;;;;;;;2.02;0.98;;;21.30;45.30;;;;;;1518122;92;22327;-36
2020/12/21 03:27:26;;;;;;;2.58;1.10;;;21.30;45.30;;;;;;1497964;93;21294;-35
2020/12/21 03:29:54;;;;;;;2.60;1.20;;;21.30;45.20;;;;;;1525353;93;21148;-36
2020/12/21 03:32:22;;;;;;;2.20;1.40;;;21.30;45.20;;;;;;1502101;92;21658;-34
2020/12/21 03:34:50;;;;;;;1.50;0.70;;;21.30;45.20;;;;;;1514488;92;21332;-36
2020/12/21 03:37:17;;;;;;;3.08;1.37;;;21.30;45.20;;;;;;1516596;92;21385;-35
2020/12/21 03:39:45;;;;;;;1.65;0.60;;;21.30;45.20;;;;;;1500255;93;21191;-36
2020/12/21 03:42:13;;;;;;;1.70;1.10;;;21.40;45.20;;;;;;1523148;91;21250;-35
2020/12/21 03:44:40;;;;;;;1.85;1.20;;;21.30;45.10;;;;;;1507991;92;21234;-36
2020/12/21 03:47:08;;;;;;;1.05;0.93;;;21.40;45.10;;;;;;1525143;92;21243;-35
2020/12/21 03:49:36;;;;;;;1.45;1.00;;;21.40;45.10;;;;;;1526727;91;21273;-36
2020/12/21 03:52:03;;;;;;;1.47;0.95;;;21.40;45.10;;;;;;1510623;92;21677;-36
2020/12/21 03:54:31;;;;;;;2.27;1.20;;;21.40;45.10;;;;;;1516719;92;21655;-36
2020/12/21 03:56:59;;;;;;;1.70;1.00;;;21.40;45.10;;;;;;1528145;91;21358;-36
2020/12/21 03:59:27;;;;;;;1.40;1.10;;;21.40;45.10;;;;;;1518603;92;21324;-36
2020/12/21 04:01:54;;;;;;;2.10;1.07;;;21.40;45.10;;;;;;1538185;91;21371;-36
2020/12/21 04:04:22;;;;;;;1.60;1.00;;;21.40;45.10;;;;;;1516741;92;21210;-37
2020/12/21 04:06:49;;;;;;;1.92;0.75;;;21.40;45.10;;;;;;1513981;92;21923;-36
2020/12/21 04:09:17;;;;;;;2.10;1.12;;;21.40;45.10;;;;;;1514039;92;21186;-34
2020/12/21 04:11:45;;;;;;;2.15;0.98;;;21.40;45.00;;;;;;1512208;91;21160;-35
2020/12/21 04:14:13;;;;;;;2.33;1.12;;;21.40;45.00;;;;;;1501322;91;21611;-35
2020/12/21 04:16:40;;;;;;;3.10;1.35;;;21.40;45.00;;;;;;1524271;91;21303;-37
2020/12/21 04:19:08;;;;;;;2.05;1.20;;;21.40;45.00;;;;;;1517739;92;21273;-37
2020/12/21 04:21:36;;;;;;;2.30;1.20;;;21.40;45.00;;;;;;1529908;90;21307;-37
2020/12/21 04:24:03;;;;;;;1.40;0.90;;;21.40;45.00;;;;;;1519332;92;21158;-35
2020/12/21 04:26:31;;;;;;;1.57;0.93;;;21.40;44.90;;;;;;1534291;91;21680;-36
2020/12/21 04:29:00;;;;;;;2.33;0.90;;;21.40;45.50;;;;;;1532412;91;21803;-35
2020/12/21 04:31:27;;;;;;;2.08;1.00;;;21.40;44.90;;;;;;1509119;92;21151;-35
2020/12/21 04:33:55;;;;;;;1.92;1.07;;;21.40;44.90;;;;;;1534377;91;21194;-38
2020/12/21 04:36:23;;;;;;;1.77;0.80;;;21.40;45.00;;;;;;1531546;91;21805;-37
2020/12/21 04:38:53;;;;;;;1.57;1.10;;;21.40;44.90;;;;;;1518201;92;21279;-35
2020/12/21 04:41:20;;;;;;;1.25;0.80;;;21.40;44.90;;;;;;1532348;92;21205;-36
2020/12/21 04:43:48;;;;;;;1.20;0.82;;;21.40;44.90;;;;;;1498919;92;21174;-35
2020/12/21 04:46:18;;;;;;;1.52;1.00;;;21.40;44.90;;;;;;1534073;92;21402;-36
2020/12/21 04:48:47;;;;;;;1.57;1.00;;;21.40;44.90;;;;;;1532668;91;21787;-35
2020/12/21 04:51:21;;;;;;;2.15;1.00;;;21.40;44.90;;;;;;1551776;91;21284;-38
2020/12/21 04:53:46;;;;;;;1.57;0.93;;;21.40;44.90;;;;;;1541841;91;21631;-36
2020/12/21 04:56:14;;;;;;;4.75;1.02;;;21.40;44.80;;;;;;1517078;92;22406;-37
2020/12/21 04:58:47;;;;;;;3.33;1.00;;;21.40;44.80;;;;;;1522509;91;21144;-35
2020/12/21 05:01:15;;;;;;;2.33;1.10;;;21.40;44.90;;;;;;1527890;91;21206;-36
2020/12/21 05:03:50;;;;;;;4.22;1.45;;;21.40;44.80;;;;;;1532557;92;21313;-36
2020/12/21 05:06:18;;;;;;;1.57;1.10;;;21.40;44.80;;;;;;1533597;91;21681;-34
2020/12/21 05:08:46;;;;;;;1.47;0.98;;;21.40;44.80;;;;;;1531668;92;21226;-35
2020/12/21 05:11:14;;;;;;;2.52;1.10;;;21.40;44.90;;;;;;1532092;91;21289;-35
2020/12/21 05:13:41;;;;;;;1.25;0.90;;;21.40;44.90;;;;;;1527052;92;21722;-36
2020/12/21 05:16:09;;;;;;;1.05;0.82;;;21.40;44.80;;;;;;1513019;92;21189;-36
2020/12/21 05:18:37;;;;;;;1.35;0.95;;;21.40;44.80;;;;;;1534447;92;21230;-36
2020/12/21 05:21:08;;;;;;;1.45;1.00;;;21.40;44.80;;;;;;1534772;91;21270;-36
2020/12/21 05:23:36;;;;;;;2.02;1.02;;;21.40;44.80;;;;;;1500791;93;21717;-35
2020/12/21 05:26:08;;;;;;;1.57;0.80;;;21.40;44.80;;;;;;1517220;92;21285;-36
2020/12/21 05:28:40;;;;;;;1.50;0.80;;;21.40;44.80;;;;;;1518573;92;21247;-37
2020/12/21 05:31:10;;;;;;;1.17;0.88;;;21.40;44.80;;;;;;1514852;92;21143;-35
2020/12/21 05:33:42;;;;;;;1.85;0.80;;;21.40;44.80;;;;;;1510134;92;21215;-35
2020/12/21 05:36:12;;;;;;;2.22;1.00;;;21.40;44.80;;;;;;1496974;92;21195;-35
2020/12/21 05:38:41;;;;;;;0.93;0.82;;;21.40;45.30;;;;;;1496680;92;21666;-37
2020/12/21 05:41:19;;;;;;;2.17;1.35;;;21.40;44.80;;;;;;1513418;92;21269;-35
2020/12/21 05:43:48;;;;;;;0.90;0.80;;;21.40;44.80;;;;;;1499211;93;21816;-36
2020/12/21 05:46:18;;;;;;;1.32;1.00;;;21.40;44.80;;;;;;1512365;92;21198;-35
2020/12/21 05:48:49;;;;;;;1.85;1.05;;;21.40;44.80;;;;;;1513829;92;21194;-38
2020/12/21 05:51:35;;;;;;;2.20;1.05;;;21.40;44.80;;;;;;1529095;92;21297;-36
2020/12/21 05:54:04;;;;;;;1.47;1.02;;;21.40;44.80;;;;;;1496448;91;67502;-35
2020/12/21 05:56:34;;;;;;;1.27;0.85;;;21.40;44.80;;;;;;1451290;97;21226;-37
2020/12/21 05:59:03;;;;;;;1.65;1.02;;;21.40;44.80;;;;;;1478215;95;21257;-35
2020/12/21 06:01:31;;;;;;;1.42;0.82;;;21.40;44.80;;;;;;1470665;95;21260;-36
2020/12/21 06:04:03;;;;;;;2.22;1.02;;;21.40;44.80;;;;;;1422166;97;21761;-36
2020/12/21 06:06:33;;;;;;;1.50;1.02;;;21.40;44.80;;;;;;1440728;96;21797;-34
2020/12/21 06:09:02;;;;;;;3.17;1.40;;;21.40;44.80;;;;;;1494797;93;21170;-36
2020/12/21 06:11:34;;;;;;;1.45;1.00;;;21.40;44.80;;;;;;1454498;97;21234;-36
2020/12/21 06:14:04;;;;;;;2.27;1.00;;;21.40;44.80;;;;;;1473193;95;21225;-37
2020/12/21 06:16:35;;;;;;;3.27;1.25;;;21.40;44.80;;;;;;1473745;95;21733;-37
2020/12/21 06:19:08;;;;;;;3.15;0.95;;;21.40;44.80;;;;;;1454557;96;21672;-36
2020/12/21 06:21:44;;;;;;;2.15;0.90;;;21.40;44.80;;;;;;1444599;96;21316;-37
2020/12/21 06:24:20;;;;;;;1.30;1.00;;;21.40;44.80;;;;;;1466693;95;21257;-35
2020/12/21 06:26:49;;;;;;;3.22;0.75;;;21.40;44.80;;;;;;1457678;95;21278;-35
2020/12/21 06:29:22;;;;;;;1.45;1.10;;;21.40;44.80;;;;;;1450758;95;21254;-35
2020/12/21 06:31:52;;;;;;;1.27;0.80;;;21.40;44.80;;;;;;1465968;95;21246;-33
2020/12/21 06:34:31;;;;;;;2.20;1.05;;;21.40;44.80;;;;;;1467848;96;21271;-37
2020/12/21 06:37:11;;;;;;;2.62;0.90;;;21.40;44.80;;;;;;1481534;93;68154;-38
2020/12/21 06:39:39;;;;;;;1.50;0.80;;;21.40;44.90;;;;;;1511726;92;67252;-34
2020/12/21 06:42:16;;;;;;;1.17;0.72;;;21.40;44.90;;;;;;1468897;94;21222;-38
2020/12/21 06:44:43;;;;;;;2.45;1.00;;;21.40;44.90;;;;;;1495783;94;21296;-35
2020/12/21 06:47:12;;;;;;;1.60;0.82;;;21.40;44.90;;;;;;1496324;94;21233;-36
2020/12/21 06:49:40;;;;;;;2.87;0.90;;;21.40;45.00;;;;;;1499448;94;21213;-36
2020/12/21 06:52:09;;;;;;;3.15;0.90;;;21.40;44.90;;;;;;1497987;94;21241;-35
2020/12/21 06:54:37;;;;;;;3.10;1.20;;;21.40;44.90;;;;;;1496714;94;22112;-37
2020/12/21 06:57:05;;;;;;;1.02;0.80;;;21.40;44.90;;;;;;1467193;96;21293;-37
2020/12/21 06:59:32;;;;;;;1.72;1.00;;;21.40;44.90;;;;;;1487820;95;21276;-36
2020/12/21 07:02:00;;;;;;;2.20;1.10;;;21.50;44.90;;;;;;1486264;95;21316;-38
2020/12/21 07:04:30;;;;;;;2.92;1.10;;;21.40;44.90;;;;;;1471236;95;21760;-36
2020/12/21 07:07:00;;;;;;;2.50;0.95;;;21.50;44.90;;;;;;1481009;95;21318;-36
2020/12/21 07:09:29;;;;;;;2.72;1.00;;;21.40;44.90;;;;;;1470508;95;21325;-36
2020/12/21 07:12:05;;;;;;;1.72;0.75;;;21.40;44.80;;;;;;1485123;95;21338;-39
2020/12/21 07:14:40;;;;;;;4.33;0.95;;;21.50;44.90;;;;;;1486408;95;21276;-36
2020/12/21 07:17:18;;;;;;;1.12;0.70;;;21.50;44.90;;;;;;1498352;94;21183;-36
2020/12/21 07:19:46;;;;;;;1.12;0.70;;;21.50;44.40;;;;;;1499158;94;21209;-36
2020/12/21 07:22:15;;;;;;;2.60;1.00;;;21.50;45.40;;;;;;1486886;94;21429;-36
2020/12/21 07:24:43;;;;;;;1.50;0.90;;;21.50;45.50;;;;;;1499099;94;21332;-36
2020/12/21 07:27:11;;;;;;;2.42;1.22;;;21.60;45.90;;;;;;1483540;95;21179;-39
2020/12/21 07:29:43;;;;;;;3.33;1.15;;;21.60;45.40;;;;;;1450181;97;21227;-34
2020/12/21 07:32:11;;;;;;;2.27;1.10;;;21.70;45.80;;;;;;1487306;94;21216;-36
2020/12/21 07:34:40;;;;;;;3.10;1.20;;;21.70;46.00;;;;;;1494217;94;21770;-36
2020/12/21 07:37:12;;;;;;;5.90;0.88;;;21.80;45.50;;;;;;1491318;94;22307;-35
2020/12/21 07:39:40;;;;;;;4.37;1.05;;;21.80;45.40;;;;;;1482434;95;21605;-36
2020/12/21 07:42:11;;;;;;;1.50;0.85;;;21.80;45.00;;;;;;1455227;95;21204;-36
2020/12/21 07:44:41;;;;;;;0.95;0.72;;;21.80;45.10;;;;;;1469914;95;21314;-36
2020/12/21 07:47:14;;;;;;;2.02;0.98;;;21.70;45.20;;;;;;1501087;94;21279;-38
2020/12/21 07:49:42;;;;;;;4.33;1.12;;;21.70;45.30;;;;;;1486388;94;21278;-37
2020/12/21 07:52:11;;;;;;;2.58;1.20;;;21.70;45.30;;;;;;1500828;94;21702;-36
2020/12/21 07:54:40;;;;;;;3.70;1.35;;;21.70;45.40;;;;;;1465975;95;21508;-35
2020/12/21 07:57:10;;;;;;;5.33;1.50;;;21.70;45.50;;;;;;1469350;96;21244;-36
2020/12/21 07:59:37;;;;;;;4.58;1.30;;;21.70;45.50;;;;;;1483108;95;21924;-36
2020/12/21 08:02:07;;;;;;;3.37;1.10;;;21.70;45.60;;;;;;1470049;95;21226;-34
2020/12/21 08:04:35;;;;;;;4.60;1.40;;;21.70;45.70;;;;;;1481837;95;21337;-35
2020/12/21 08:07:10;;;;;;;5.65;1.60;;;21.70;45.80;;;;;;1480413;94;21681;-35
2020/12/21 08:09:38;;;;;;;5.03;1.57;;;21.70;45.80;;;;;;1462768;95;21691;-35
2020/12/21 08:12:17;;;;;;;4.60;1.70;;;21.70;45.90;;;;;;1482553;93;21210;-36
2020/12/21 08:14:46;;;;;;;3.52;1.50;;;21.70;45.90;;;;;;1497454;93;21259;-35
2020/12/21 08:17:16;;;;;;;5.37;1.30;;;21.70;46.00;;;;;;1473503;95;21259;-36
2020/12/21 08:19:48;;;;;;;5.80;1.72;;;21.60;46.00;;;;;;1483720;94;21273;-36
2020/12/21 08:22:20;;;;;;;3.70;1.55;;;21.60;46.10;;;;;;1451402;95;21687;-39
2020/12/21 08:25:12;;;;;;;3.52;1.57;;;21.70;46.10;;;;;;1485808;94;21802;-37
2020/12/21 08:27:51;;;;;;;3.75;1.62;;;21.70;46.20;;;;;;1499495;90;68149;-37
2020/12/21 08:30:21;;;;;;;3.45;1.50;;;21.70;46.20;;;;;;1512911;92;22076;-36
2020/12/21 08:32:52;;;;;;;4.65;1.67;;;21.60;46.20;;;;;;1508172;92;21206;-36
2020/12/21 08:35:27;;;;;;;3.60;1.42;;;21.60;46.30;;;;;;1510493;92;21162;-35
2020/12/21 08:37:58;;;;;;;4.72;1.60;;;21.60;46.30;;;;;;1508938;92;21849;-37
2020/12/21 08:40:26;;;;;;;7.00;1.47;;;21.60;46.30;;;;;;1506965;93;21235;-36
2020/12/21 08:42:53;;;;;;;4.35;1.57;;;21.60;46.30;;;;;;1498429;93;21209;-38
2020/12/21 08:45:22;;;;;;;6.12;1.45;;;21.60;46.30;;;;;;1509583;92;21808;-36
2020/12/21 08:47:50;;;;;;;6.65;2.08;;;21.60;46.40;;;;;;1492341;93;21185;-36
2020/12/21 08:50:18;;;;;;;6.75;1.70;;;21.60;46.40;;;;;;1511937;92;21296;-38
2020/12/21 08:52:49;;;;;;;10.00;2.42;;;21.50;43.70;;;;;;1516165;92;21233;-35
2020/12/21 08:55:17;;;;;;;16.12;1.95;;;21.30;42.40;;;;;;1512808;92;21264;-37
2020/12/21 08:57:45;;;;;;;6.80;2.00;;;21.00;41.10;;;;;;1508513;92;21221;-35
2020/12/21 09:00:12;;;;;;;4.17;1.42;;;20.90;41.80;;;;;;1507246;93;21209;-36
2020/12/21 09:02:40;;;;;;;4.58;1.82;;;20.90;41.30;;;;;;1497487;94;21363;-37
2020/12/21 09:05:08;;;;;;;9.18;1.95;;;20.80;40.60;;;;;;1506666;92;21566;-37
2020/12/21 09:07:35;;;;;;;6.05;1.90;;;20.70;40.80;;;;;;1502136;92;21734;-38
2020/12/21 09:10:05;;;;;;;4.62;1.70;;;20.60;40.30;;;;;;1510188;92;21213;-37
2020/12/21 09:12:36;;;;;;;5.80;1.72;;;20.60;40.60;;;;;;1507382;92;21411;-36
2020/12/21 09:15:04;;;;;;;5.53;1.47;;;20.50;40.20;;;;;;1478468;93;21226;-36
2020/12/21 09:17:32;;;;;;;8.73;2.02;;;20.40;39.90;;;;;;1510103;93;21892;-37
2020/12/21 09:20:00;;;;;;;5.03;1.65;;;20.30;40.20;;;;;;1509661;92;21292;-37
2020/12/21 09:22:27;;;;;;;7.35;1.60;;;20.20;40.20;;;;;;1480508;92;21217;-35
2020/12/21 09:24:55;;;;;;;5.50;2.00;;;20.10;40.20;;;;;;1496292;92;21190;-34
2020/12/21 09:27:23;;;;;;;5.30;1.70;;;20.10;39.90;;;;;;1491031;93;21634;-35
2020/12/21 09:29:50;;;;;;;3.25;1.47;;;20.00;40.00;;;;;;1490746;93;21436;-35
2020/12/21 09:32:18;;;;;;;6.33;1.85;;;20.00;40.00;;;;;;1492140;93;21191;-36
2020/12/21 09:34:46;;;;;;;9.83;2.80;;;20.00;40.20;;;;;;1477213;94;21357;-36
2020/12/21 09:37:13;;;;;;;7.78;1.80;;;20.00;40.10;;;;;;1494849;93;21687;-35
2020/12/21 09:39:41;;;;;;;6.37;2.10;;;19.90;39.90;;;;;;1493574;94;21745;-36
2020/12/21 09:42:09;;;;;;;9.55;1.95;;;19.80;40.30;;;;;;1489288;94;21170;-35
2020/12/21 09:44:37;;;;;;;6.72;1.85;;;19.90;40.20;;;;;;1492182;94;21683;-36
2020/12/21 09:47:04;;;;;;;6.60;1.90;;;19.80;39.90;;;;;;1477126;94;21277;-36
2020/12/21 09:49:32;;;;;;;8.58;2.20;;;19.80;39.90;;;;;;1475035;94;21413;-36
2020/12/21 09:52:00;;;;;;;6.87;1.67;;;19.90;40.10;;;;;;1492597;93;21178;-34
2020/12/21 09:54:27;;;;;;;5.62;1.85;;;19.90;40.20;;;;;;1457816;94;21206;-36
2020/12/21 09:56:56;;;;;;;6.15;1.80;;;20.00;40.30;;;;;;1497910;93;21737;-36
2020/12/21 09:59:24;;;;;;;8.23;1.90;;;20.10;40.50;;;;;;1488331;94;21679;-37
2020/12/21 10:01:51;;;;;;;8.23;2.08;;;20.20;40.50;;;;;;1478909;94;21207;-35
2020/12/21 10:04:19;;;;;;;4.85;1.72;;;20.40;40.70;;;;;;1492135;94;21805;-35
2020/12/21 10:06:50;;;;;;;6.05;1.72;;;20.40;40.80;;;;;;1476761;94;21183;-35
2020/12/21 10:09:18;;;;;;;6.35;1.67;;;20.50;40.90;;;;;;1476623;94;21294;-37
2020/12/21 10:11:46;;;;;;;4.15;1.70;;;20.60;41.20;;;;;;1491392;94;21199;-35
2020/12/21 10:14:13;;;;;;;5.60;1.50;;;20.60;41.30;;;;;;1478555;94;21207;-36
2020/12/21 10:16:41;;;;;;;12.63;1.75;;;20.70;41.50;;;;;;1490603;94;21277;-35
2020/12/21 10:19:09;;;;;;;4.03;1.67;;;20.70;41.90;;;;;;1493022;93;21195;-36
2020/12/21 10:21:36;;;;;;;4.90;1.75;;;20.90;42.10;;;;;;1465711;94;21348;-37
2020/12/21 10:24:04;;;;;;;4.03;1.62;;;20.90;42.30;;;;;;1489451;93;21262;-36
2020/12/21 10:26:32;;;;;;;19.02;2.37;;;21.00;42.40;;;;;;1499643;94;21926;-38
2020/12/21 10:29:00;;;;;;;5.42;1.75;;;21.00;42.40;;;;;;1501998;93;21654;-36
2020/12/21 10:31:31;;;;;;;3.75;1.50;;;21.10;42.60;;;;;;1494255;93;21279;-37
2020/12/21 10:33:59;;;;;;;6.30;1.60;;;21.10;42.70;;;;;;1500522;93;21800;-37
2020/12/21 10:36:27;;;;;;;6.12;2.02;;;21.20;42.60;;;;;;1492985;93;21309;-38
2020/12/21 10:38:55;;;;;;;5.37;1.40;;;21.20;42.50;;;;;;1492425;93;21705;-36
2020/12/21 10:41:22;;;;;;;3.80;1.37;;;21.30;42.50;;;;;;1492734;93;21206;-37
2020/12/21 10:43:50;;;;;;;6.53;2.12;;;21.30;42.60;;;;;;1493127;93;21258;-38
2020/12/21 10:46:21;;;;;;;3.65;1.70;;;21.40;42.60;;;;;;1469513;94;21380;-36
2020/12/21 10:48:49;;;;;;;4.90;1.55;;;21.40;42.60;;;;;;1491262;93;21607;-36
2020/12/21 10:51:18;;;;;;;4.50;1.50;;;21.50;42.20;;;;;;1499097;90;67849;-36
2020/12/21 10:53:46;;;;;;;3.42;1.30;;;21.50;42.60;;;;;;1472756;94;21256;-37
2020/12/21 10:56:14;;;;;;;5.37;1.27;;;21.60;42.60;;;;;;1492494;93;21213;-33
2020/12/21 10:58:42;;;;;;;5.10;1.62;;;21.60;42.60;;;;;;1490098;94;21312;-36
2020/12/21 11:01:10;;;;;;;6.65;1.60;;;21.60;42.60;;;;;;1489966;94;21233;-37
2020/12/21 11:03:38;;;;;;;3.52;1.20;;;21.60;42.70;;;;;;1489186;93;21217;-37
2020/12/21 11:06:06;;;;;;;9.53;1.65;;;21.70;42.20;;;;;;1478507;94;21751;-37
2020/12/21 11:08:33;;;;;;;10.58;1.57;;;21.70;42.70;;;;;;1493159;94;21270;-38
2020/12/21 11:11:01;;;;;;;8.73;1.45;;;21.70;42.20;;;;;;1470032;95;21239;-37
2020/12/21 11:13:30;;;;;;;3.55;1.35;;;;;;;;;;1474500;95;21439;-35
2020/12/21 11:15:57;;;;;;;7.62;1.72;;;21.80;42.60;;;;;;1490736;94;21313;-36
2020/12/21 11:18:25;;;;;;;5.90;1.55;;;21.80;42.80;;;;;;1492587;94;21351;-33
2020/12/21 11:20:52;;;;;;;3.85;1.37;;;21.80;42.80;;;;;;1482270;93;21166;-37
2020/12/21 11:23:20;;;;;;;9.20;2.20;;;21.80;42.80;;;;;;1497690;94;21295;-37
2020/12/21 11:25:48;;;;;;;9.93;1.95;;;21.90;42.80;;;;;;1469982;93;21739;-35
2020/12/21 11:28:15;;;;;;;4.45;1.05;;;21.90;42.80;;;;;;1505714;92;21317;-37
2020/12/21 11:30:43;;;;;;;4.45;1.47;;;21.90;43.00;;;;;;1484927;94;21802;-38
2020/12/21 11:33:11;;;;;;;5.83;1.17;;;21.90;42.90;;;;;;1486478;93;21229;-37
2020/12/21 11:35:38;;;;;;;5.55;1.35;;;22.00;43.00;;;;;;1501801;93;21173;-36
2020/12/21 11:38:09;;;;;;;4.10;1.65;;;22.00;42.90;;;;;;1487573;93;21783;-38
2020/12/21 11:40:36;;;;;;;5.62;1.20;;;22.00;43.00;;;;;;1503769;92;21851;-38
2020/12/21 11:43:04;;;;;;;9.48;1.90;;;22.00;42.90;;;;;;1501236;93;21224;-36
2020/12/21 11:45:32;;;;;;;2.52;1.02;;;22.10;43.10;;;;;;1501347;93;21702;-36
2020/12/21 11:47:59;;;;;;;2.85;1.55;;;22.10;42.90;;;;;;1498317;93;21288;-36
2020/12/21 11:50:27;;;;;;;2.95;1.52;;;22.10;42.90;;;;;;1490253;93;21894;-35
2020/12/21 11:52:55;;;;;;;6.12;1.72;;;22.10;43.00;;;;;;1485233;94;21282;-38
2020/12/21 11:55:23;;;;;;;5.10;1.30;;;22.10;42.90;;;;;;1507188;92;21220;-37
2020/12/21 11:57:50;;;;;;;7.75;1.60;;;22.10;43.00;;;;;;1471122;94;21230;-35
2020/12/21 12:00:18;;;;;;;3.37;1.37;;;22.10;43.00;;;;;;1508067;92;21285;-35
2020/12/21 12:02:45;;;;;;;4.22;1.60;;;22.00;43.20;;;;;;1507179;93;21240;-37
2020/12/21 12:05:14;;;;;;;4.83;1.70;;;22.00;43.30;;;;;;1498672;94;22483;-33
2020/12/21 12:07:41;;;;;;;3.92;1.57;;;22.00;43.40;;;;;;1507749;92;22564;-40
2020/12/21 12:10:09;;;;;;;5.58;1.55;;;21.90;43.50;;;;;;1502976;92;21261;-37
2020/12/21 12:12:37;;;;;;;3.95;1.55;;;21.90;43.50;;;;;;1510404;93;21228;-37
2020/12/21 12:15:05;;;;;;;4.95;1.60;;;21.90;43.50;;;;;;1513816;93;21357;-37
2020/12/21 12:17:33;;;;;;;2.75;1.20;;;21.90;43.60;;;;;;1496030;93;21182;-34
2020/12/21 12:20:00;;;;;;;6.90;2.37;;;21.90;43.70;;;;;;1511594;93;21312;-35
2020/12/21 12:22:28;;;;;;;4.30;1.47;;;21.90;43.80;;;;;;1494445;93;21292;-36
2020/12/21 12:24:55;;;;;;;1.80;1.37;;;21.80;43.80;;;;;;1492214;93;21261;-34
2020/12/21 12:27:23;;;;;;;5.12;1.40;;;21.80;43.80;;;;;;1495649;94;21929;-38
2020/12/21 12:29:51;;;;;;;4.67;1.32;;;21.80;43.90;;;;;;1477987;94;21246;-37
2020/12/21 12:32:21;;;;;;;2.15;1.27;;;21.80;43.90;;;;;;1471694;93;21800;-36
2020/12/21 12:34:49;;;;;;;5.17;1.37;;;21.80;44.00;;;;;;1492706;94;21194;-35
2020/12/21 12:37:17;;;;;;;4.55;1.80;;;21.80;44.10;;;;;;1497234;93;21705;-36
2020/12/21 12:39:45;;;;;;;2.83;1.57;;;21.70;44.10;;;;;;1494078;94;21217;-37
2020/12/21 12:42:13;;;;;;;3.42;1.62;;;21.80;44.30;;;;;;1486377;94;21558;-36
2020/12/21 12:44:40;;;;;;;5.40;1.57;;;21.80;44.30;;;;;;1482819;94;21276;-35
2020/12/21 12:47:08;;;;;;;3.08;1.50;;;21.70;44.30;;;;;;1487649;94;22748;-38
2020/12/21 12:49:35;;;;;;;2.50;1.27;;;21.80;44.40;;;;;;1486332;93;21304;-36
2020/12/21 12:52:03;;;;;;;5.90;1.72;;;21.70;44.40;;;;;;1470331;94;21291;-35
2020/12/21 12:54:31;;;;;;;2.58;1.40;;;21.70;44.50;;;;;;1495717;94;21181;-36
2020/12/21 12:56:59;;;;;;;8.08;1.70;;;21.70;44.60;;;;;;1476609;94;21721;-37